sensor_id;sensor_type;location;lat;lon;timestamp;pressure;altitude;pressure_sealevel;temperature;humidity
3590;BME280;1809;48.470;9.226;2023-04-27T00:00:48;-16393.69;;;8.06;100.00
3590;BME280;1809;48.470;9.226;2023-04-27T00:03:14;-16393.00;;;8.03;100.00
3590;BME280;1809;48.470;9.226;2023-04-27T00:05:39;-16392.56;;;8.02;100.00
3590;BME280;1809;48.470;9.226;2023-04-27T00:08:05;-16396.22;;;8.15;100.00
3590;BME280;1809;48.470;9.226;2023-04-27T00:10:31;-16395.38;;;8.12;100.00
3590;BME280;1809;48.470;9.226;2023-04-27T00:12:56;-16395.25;;;8.11;100.00
3590;BME280;1809;48.470;9.226;2023-04-27T00:15:22;-16395.25;;;8.11;100.00
3590;BME280;1809;48.470;9.226;2023-04-27T00:17:47;-16396.78;;;8.17;100.00
3590;BME280;1809;48.470;9.226;2023-04-27T00:20:13;-16395.94;;;8.14;100.00
3590;BME280;1809;48.470;9.226;2023-04-27T00:22:38;-16396.50;;;8.16;100.00
3590;BME280;1809;48.470;9.226;2023-04-27T00:25:04;-16398.19;;;8.22;100.00
3590;BME280;1809;48.470;9.226;2023-04-27T00:27:30;-16395.94;;;8.14;100.00
3590;BME280;1809;48.470;9.226;2023-04-27T00:29:55;-16395.38;;;8.12;100.00
3590;BME280;1809;48.470;9.226;2023-04-27T00:32:21;-16393.97;;;8.07;100.00
3590;BME280;1809;48.470;9.226;2023-04-27T00:34:46;-16393.41;;;8.05;100.00
3590;BME280;1809;48.470;9.226;2023-04-27T00:37:11;-16391.16;;;7.97;100.00
3590;BME280;1809;48.470;9.226;2023-04-27T00:39:37;-16391.44;;;7.98;100.00
3590;BME280;1809;48.470;9.226;2023-04-27T00:42:02;-16391.16;;;7.97;100.00
3590;BME280;1809;48.470;9.226;2023-04-27T00:44:28;-16390.75;;;7.95;100.00
3590;BME280;1809;48.470;9.226;2023-04-27T00:46:54;-16390.88;;;7.96;100.00
3590;BME280;1809;48.470;9.226;2023-04-27T00:49:20;-16390.31;;;7.94;100.00
3590;BME280;1809;48.470;9.226;2023-04-27T00:51:46;-16390.03;;;7.93;100.00
3590;BME280;1809;48.470;9.226;2023-04-27T00:54:13;-16389.75;;;7.92;100.00
3590;BME280;1809;48.470;9.226;2023-04-27T00:56:40;-16388.63;;;7.88;100.00
3590;BME280;1809;48.470;9.226;2023-04-27T00:59:05;-16388.34;;;7.87;100.00
3590;BME280;1809;48.470;9.226;2023-04-27T01:01:31;-16388.34;;;7.87;100.00
3590;BME280;1809;48.470;9.226;2023-04-27T01:03:56;-16388.34;;;7.87;100.00
3590;BME280;1809;48.470;9.226;2023-04-27T01:06:22;-16387.78;;;7.85;100.00
3590;BME280;1809;48.470;9.226;2023-04-27T01:08:47;-16386.66;;;7.81;100.00
3590;BME280;1809;48.470;9.226;2023-04-27T01:11:12;-16384.97;;;7.75;100.00
3590;BME280;1809;48.470;9.226;2023-04-27T01:13:38;-16384.56;;;7.73;100.00
3590;BME280;1809;48.470;9.226;2023-04-27T01:16:03;-16385.81;;;7.78;100.00
3590;BME280;1809;48.470;9.226;2023-04-27T01:18:29;-16385.13;;;7.75;100.00
3590;BME280;1809;48.470;9.226;2023-04-27T01:20:54;-16386.53;;;7.80;100.00
3590;BME280;1809;48.470;9.226;2023-04-27T01:23:20;-16386.53;;;7.80;100.00
3590;BME280;1809;48.470;9.226;2023-04-27T01:25:46;-16386.81;;;7.81;100.00
3590;BME280;1809;48.470;9.226;2023-04-27T01:28:11;-16385.25;;;7.76;100.00
3590;BME280;1809;48.470;9.226;2023-04-27T01:30:36;-16384.69;;;7.74;100.00
3590;BME280;1809;48.470;9.226;2023-04-27T01:33:02;-16384.00;;;7.71;100.00
3590;BME280;1809;48.470;9.226;2023-04-27T01:35:28;-16382.72;;;7.67;100.00
3590;BME280;1809;48.470;9.226;2023-04-27T01:37:53;-16383.00;;;7.68;100.00
3590;BME280;1809;48.470;9.226;2023-04-27T01:40:18;-16382.16;;;7.65;100.00
3590;BME280;1809;48.470;9.226;2023-04-27T01:42:43;-16380.63;;;7.59;100.00
3590;BME280;1809;48.470;9.226;2023-04-27T01:45:09;-16378.94;;;7.53;100.00
3590;BME280;1809;48.470;9.226;2023-04-27T01:47:35;-16377.94;;;7.49;100.00
3590;BME280;1809;48.470;9.226;2023-04-27T01:50:00;-16375.97;;;7.42;100.00
3590;BME280;1809;48.470;9.226;2023-04-27T01:52:26;-16376.25;;;7.43;100.00
3590;BME280;1809;48.470;9.226;2023-04-27T01:54:52;-16374.84;;;7.38;100.00
3590;BME280;1809;48.470;9.226;2023-04-27T01:57:17;-16373.44;;;7.33;100.00
3590;BME280;1809;48.470;9.226;2023-04-27T01:59:43;-16374.56;;;7.37;100.00
3590;BME280;1809;48.470;9.226;2023-04-27T02:02:08;-16372.59;;;7.30;100.00
3590;BME280;1809;48.470;9.226;2023-04-27T02:04:33;-16370.91;;;7.24;100.00
3590;BME280;1809;48.470;9.226;2023-04-27T02:07:00;-16371.75;;;7.27;100.00
3590;BME280;1809;48.470;9.226;2023-04-27T02:09:26;-16372.59;;;7.30;100.00
3590;BME280;1809;48.470;9.226;2023-04-27T02:11:51;-16371.19;;;7.25;100.00
3590;BME280;1809;48.470;9.226;2023-04-27T02:14:16;-16369.78;;;7.20;100.00
3590;BME280;1809;48.470;9.226;2023-04-27T02:16:42;-16370.78;;;7.24;100.00
3590;BME280;1809;48.470;9.226;2023-04-27T02:19:07;-16369.78;;;7.20;100.00
3590;BME280;1809;48.470;9.226;2023-04-27T02:21:32;-16369.50;;;7.19;100.00
3590;BME280;1809;48.470;9.226;2023-04-27T02:23:58;-16367.97;;;7.14;100.00
3590;BME280;1809;48.470;9.226;2023-04-27T02:26:23;-16368.53;;;7.16;100.00
3590;BME280;1809;48.470;9.226;2023-04-27T02:28:54;-16367.53;;;7.12;100.00
3590;BME280;1809;48.470;9.226;2023-04-27T02:31:20;-16367.53;;;7.12;100.00
3590;BME280;1809;48.470;9.226;2023-04-27T02:33:46;-16368.38;;;7.15;100.00
3590;BME280;1809;48.470;9.226;2023-04-27T02:36:11;-16367.53;;;7.12;100.00
3590;BME280;1809;48.470;9.226;2023-04-27T02:38:37;-16367.41;;;7.12;100.00
3590;BME280;1809;48.470;9.226;2023-04-27T02:41:02;-16366.69;;;7.09;100.00
3590;BME280;1809;48.470;9.226;2023-04-27T02:43:27;-16368.25;;;7.15;100.00
3590;BME280;1809;48.470;9.226;2023-04-27T02:45:53;-16367.25;;;7.11;100.00
3590;BME280;1809;48.470;9.226;2023-04-27T02:48:18;-16368.53;;;7.16;100.00
3590;BME280;1809;48.470;9.226;2023-04-27T02:50:43;-16369.78;;;7.20;100.00
3590;BME280;1809;48.470;9.226;2023-04-27T02:53:10;-16368.94;;;7.17;100.00
3590;BME280;1809;48.470;9.226;2023-04-27T02:55:35;-16368.09;;;7.14;100.00
3590;BME280;1809;48.470;9.226;2023-04-27T02:58:01;-16367.53;;;7.12;100.00
3590;BME280;1809;48.470;9.226;2023-04-27T03:00:26;-16366.69;;;7.09;100.00
3590;BME280;1809;48.470;9.226;2023-04-27T03:02:52;-16365.84;;;7.06;100.00
3590;BME280;1809;48.470;9.226;2023-04-27T03:05:17;-16366.28;;;7.08;100.00
3590;BME280;1809;48.470;9.226;2023-04-27T03:07:43;-16366.97;;;7.10;100.00
3590;BME280;1809;48.470;9.226;2023-04-27T03:10:08;-16365.84;;;7.06;100.00
3590;BME280;1809;48.470;9.226;2023-04-27T03:12:34;-16365.84;;;7.06;100.00
3590;BME280;1809;48.470;9.226;2023-04-27T03:14:59;-16365.84;;;7.06;100.00
3590;BME280;1809;48.470;9.226;2023-04-27T03:17:25;-16367.25;;;7.11;100.00
3590;BME280;1809;48.470;9.226;2023-04-27T03:19:51;-16368.66;;;7.16;100.00
3590;BME280;1809;48.470;9.226;2023-04-27T03:22:16;-16370.91;;;7.24;100.00
3590;BME280;1809;48.470;9.226;2023-04-27T03:24:42;-16371.19;;;7.25;100.00
3590;BME280;1809;48.470;9.226;2023-04-27T03:27:07;-16371.75;;;7.27;100.00
3590;BME280;1809;48.470;9.226;2023-04-27T03:29:32;-16370.06;;;7.21;100.00
3590;BME280;1809;48.470;9.226;2023-04-27T03:31:58;-16370.34;;;7.22;100.00
3590;BME280;1809;48.470;9.226;2023-04-27T03:34:23;-16370.78;;;7.24;100.00
3590;BME280;1809;48.470;9.226;2023-04-27T03:36:49;-16371.47;;;7.26;100.00
3590;BME280;1809;48.470;9.226;2023-04-27T03:39:15;-16371.47;;;7.26;100.00
3590;BME280;1809;48.470;9.226;2023-04-27T03:41:40;-16369.94;;;7.21;100.00
3590;BME280;1809;48.470;9.226;2023-04-27T03:44:05;-16371.19;;;7.25;100.00
3590;BME280;1809;48.470;9.226;2023-04-27T03:46:31;-16371.19;;;7.25;100.00
3590;BME280;1809;48.470;9.226;2023-04-27T03:48:56;-16370.34;;;7.22;100.00
3590;BME280;1809;48.470;9.226;2023-04-27T03:51:22;-16372.03;;;7.28;100.00
3590;BME280;1809;48.470;9.226;2023-04-27T03:53:47;-16371.75;;;7.27;100.00
3590;BME280;1809;48.470;9.226;2023-04-27T03:56:12;-16372.03;;;7.28;100.00
3590;BME280;1809;48.470;9.226;2023-04-27T03:58:38;-16372.75;;;7.31;100.00
3590;BME280;1809;48.470;9.226;2023-04-27T04:01:03;-16370.91;;;7.24;100.00
3590;BME280;1809;48.470;9.226;2023-04-27T04:03:28;-16371.47;;;7.26;100.00
3590;BME280;1809;48.470;9.226;2023-04-27T04:05:54;-16373.44;;;7.33;100.00
3590;BME280;1809;48.470;9.226;2023-04-27T04:08:19;-16374.44;;;7.37;100.00
3590;BME280;1809;48.470;9.226;2023-04-27T04:10:44;-16375.41;;;7.40;100.00
3590;BME280;1809;48.470;9.226;2023-04-27T04:13:10;-16375.69;;;7.41;100.00
3590;BME280;1809;48.470;9.226;2023-04-27T04:15:35;-16376.81;;;7.45;100.00
3590;BME280;1809;48.470;9.226;2023-04-27T04:18:00;-16375.28;;;7.40;100.00
3590;BME280;1809;48.470;9.226;2023-04-27T04:20:26;-16375.97;;;7.42;100.00
3590;BME280;1809;48.470;9.226;2023-04-27T04:22:51;-16375.13;;;7.39;100.00
3590;BME280;1809;48.470;9.226;2023-04-27T04:25:17;-16376.25;;;7.43;100.00
3590;BME280;1809;48.470;9.226;2023-04-27T04:27:42;-16377.53;;;7.48;100.00
3590;BME280;1809;48.470;9.226;2023-04-27T04:30:09;-16375.97;;;7.42;100.00
3590;BME280;1809;48.470;9.226;2023-04-27T04:32:34;-16375.97;;;7.42;100.00
3590;BME280;1809;48.470;9.226;2023-04-27T04:35:03;-16375.41;;;7.40;100.00
3590;BME280;1809;48.470;9.226;2023-04-27T04:37:32;-16376.81;;;7.45;100.00
3590;BME280;1809;48.470;9.226;2023-04-27T04:39:57;-16377.53;;;7.48;100.00
3590;BME280;1809;48.470;9.226;2023-04-27T04:42:22;-16378.66;;;7.52;100.00
3590;BME280;1809;48.470;9.226;2023-04-27T04:44:48;-16379.34;;;7.54;100.00
3590;BME280;1809;48.470;9.226;2023-04-27T04:47:13;-16379.50;;;7.55;100.00
3590;BME280;1809;48.470;9.226;2023-04-27T04:49:39;-16380.47;;;7.58;100.00
3590;BME280;1809;48.470;9.226;2023-04-27T04:52:04;-16381.47;;;7.62;100.00
3590;BME280;1809;48.470;9.226;2023-04-27T04:54:30;-16383.00;;;7.68;100.00
3590;BME280;1809;48.470;9.226;2023-04-27T04:56:55;-16385.13;;;7.75;100.00
3590;BME280;1809;48.470;9.226;2023-04-27T04:59:22;-16387.38;;;7.83;100.00
3590;BME280;1809;48.470;9.226;2023-04-27T05:01:47;-16389.19;;;7.90;100.00
3590;BME280;1809;48.470;9.226;2023-04-27T05:04:13;-16392.44;;;8.01;100.00
3590;BME280;1809;48.470;9.226;2023-04-27T05:06:38;-16393.84;;;8.06;100.00
3590;BME280;1809;48.470;9.226;2023-04-27T05:09:03;-16395.66;;;8.13;100.00
3590;BME280;1809;48.470;9.226;2023-04-27T05:11:30;-16399.88;;;8.28;100.00
3590;BME280;1809;48.470;9.226;2023-04-27T05:13:56;-16401.00;;;8.32;100.00
3590;BME280;1809;48.470;9.226;2023-04-27T05:16:21;-16405.22;;;8.47;100.00
3590;BME280;1809;48.470;9.226;2023-04-27T05:18:46;-16409.44;;;8.62;100.00
3590;BME280;1809;48.470;9.226;2023-04-27T05:21:15;-16409.72;;;8.63;100.00
3590;BME280;1809;48.470;9.226;2023-04-27T05:23:41;-16413.53;;;8.77;100.00
3590;BME280;1809;48.470;9.226;2023-04-27T05:26:12;-16417.31;;;8.91;100.00
3590;BME280;1809;48.470;9.226;2023-04-27T05:28:37;-16420.69;;;9.03;100.00
3590;BME280;1809;48.470;9.226;2023-04-27T05:31:02;-16424.34;;;9.16;100.00
3590;BME280;1809;48.470;9.226;2023-04-27T05:33:28;-16430.25;;;9.37;100.00
3590;BME280;1809;48.470;9.226;2023-04-27T05:35:53;-16435.31;;;9.55;100.00
3590;BME280;1809;48.470;9.226;2023-04-27T05:38:18;-16437.25;;;9.62;100.00
3590;BME280;1809;48.470;9.226;2023-04-27T05:40:43;-16437.00;;;9.61;100.00
3590;BME280;1809;48.470;9.226;2023-04-27T05:43:09;-16443.16;;;9.84;100.00
3590;BME280;1809;48.470;9.226;2023-04-27T05:45:38;-16448.78;;;10.04;100.00
3590;BME280;1809;48.470;9.226;2023-04-27T05:48:03;-16455.81;;;10.29;100.00
3590;BME280;1809;48.470;9.226;2023-04-27T05:50:28;-16446.81;;;9.97;100.00
3590;BME280;1809;48.470;9.226;2023-04-27T05:52:54;-16449.63;;;10.07;100.00
3590;BME280;1809;48.470;9.226;2023-04-27T05:55:19;-16455.13;;;10.27;100.00
3590;BME280;1809;48.470;9.226;2023-04-27T05:57:45;-16471.25;;;10.85;100.00
3590;BME280;1809;48.470;9.226;2023-04-27T06:00:10;-16492.03;;;11.59;100.00
3590;BME280;1809;48.470;9.226;2023-04-27T06:02:36;-16520.97;;;12.63;100.00
3590;BME280;1809;48.470;9.226;2023-04-27T06:05:02;-16545.66;;;13.52;100.00
3590;BME280;1809;48.470;9.226;2023-04-27T06:07:27;-16557.72;;;13.95;100.00
3590;BME280;1809;48.470;9.226;2023-04-27T06:09:53;-16577.06;;;14.65;100.00
3590;BME280;1809;48.470;9.226;2023-04-27T06:12:18;-16577.91;;;14.68;100.00
3590;BME280;1809;48.470;9.226;2023-04-27T06:14:43;-16577.50;;;14.67;100.00
3590;BME280;1809;48.470;9.226;2023-04-27T06:17:09;-16574.28;;;14.55;100.00
3590;BME280;1809;48.470;9.226;2023-04-27T06:19:34;-16555.75;;;13.88;100.00
3590;BME280;1809;48.470;9.226;2023-04-27T06:22:00;-16552.38;;;13.76;100.00
3590;BME280;1809;48.470;9.226;2023-04-27T06:24:27;-16555.06;;;13.86;100.00
3590;BME280;1809;48.470;9.226;2023-04-27T06:26:52;-16535.84;;;13.17;100.00
3590;BME280;1809;48.470;9.226;2023-04-27T06:29:18;-16540.88;;;13.35;100.00
3590;BME280;1809;48.470;9.226;2023-04-27T06:31:43;-16542.28;;;13.40;100.00
3590;BME280;1809;48.470;9.226;2023-04-27T06:34:09;-16545.38;;;13.51;100.00
3590;BME280;1809;48.470;9.226;2023-04-27T06:36:34;-16521.38;;;12.65;100.00
3590;BME280;1809;48.470;9.226;2023-04-27T06:39:00;-16539.75;;;13.31;100.00
3590;BME280;1809;48.470;9.226;2023-04-27T06:41:26;-16554.34;;;13.83;100.00
3590;BME280;1809;48.470;9.226;2023-04-27T06:43:51;-16559.69;;;14.02;100.00
3590;BME280;1809;48.470;9.226;2023-04-27T06:46:17;-16561.50;;;14.09;100.00
3590;BME280;1809;48.470;9.226;2023-04-27T06:48:42;-16533.03;;;13.07;100.00
3590;BME280;1809;48.470;9.226;2023-04-27T06:51:08;-16528.25;;;12.89;100.00
3590;BME280;1809;48.470;9.226;2023-04-27T06:53:33;-16537.09;;;13.21;100.00
3590;BME280;1809;48.470;9.226;2023-04-27T06:55:59;-16545.78;;;13.53;100.00
3590;BME280;1809;48.470;9.226;2023-04-27T06:58:24;-16558.41;;;13.98;100.00
3590;BME280;1809;48.470;9.226;2023-04-27T07:00:51;-16553.22;;;13.79;100.00
3590;BME280;1809;48.470;9.226;2023-04-27T07:03:16;-16546.63;;;13.56;100.00
3590;BME280;1809;48.470;9.226;2023-04-27T07:05:42;-16540.88;;;13.35;100.00
3590;BME280;1809;48.470;9.226;2023-04-27T07:08:07;-16550.28;;;13.69;100.00
3590;BME280;1809;48.470;9.226;2023-04-27T07:10:32;-16555.19;;;13.86;100.00
3590;BME280;1809;48.470;9.226;2023-04-27T07:12:58;-16552.66;;;13.77;100.00
3590;BME280;1809;48.470;9.226;2023-04-27T07:15:23;-16560.53;;;14.06;100.00
3590;BME280;1809;48.470;9.226;2023-04-27T07:17:50;-16582.69;;;14.85;100.00
3590;BME280;1809;48.470;9.226;2023-04-27T07:20:16;-16595.44;;;15.31;100.00
3590;BME280;1809;48.470;9.226;2023-04-27T07:22:42;-16610.56;;;15.86;100.00
3590;BME280;1809;48.470;9.226;2023-04-27T07:25:08;-16620.09;;;16.20;100.00
3590;BME280;1809;48.470;9.226;2023-04-27T07:27:33;-16608.75;;;15.79;100.00
3590;BME280;1809;48.470;9.226;2023-04-27T07:29:59;-16596.84;;;15.36;100.00
3590;BME280;1809;48.470;9.226;2023-04-27T07:32:25;-16610.00;;;15.84;100.00
3590;BME280;1809;48.470;9.226;2023-04-27T07:34:50;-16611.28;;;15.88;100.00
3590;BME280;1809;48.470;9.226;2023-04-27T07:37:16;-16612.41;;;15.92;100.00
3590;BME280;1809;48.470;9.226;2023-04-27T07:39:42;-16594.59;;;15.28;100.00
3590;BME280;1809;48.470;9.226;2023-04-27T07:42:07;-16599.22;;;15.45;100.00
3590;BME280;1809;48.470;9.226;2023-04-27T07:44:33;-16577.63;;;14.67;100.00
3590;BME280;1809;48.470;9.226;2023-04-27T07:46:58;-16585.47;;;14.95;100.00
3590;BME280;1809;48.470;9.226;2023-04-27T07:49:23;-16587.03;;;15.01;100.00
3590;BME280;1809;48.470;9.226;2023-04-27T07:51:50;-16589.41;;;15.10;100.00
3590;BME280;1809;48.470;9.226;2023-04-27T07:54:16;-16595.28;;;15.31;100.00
3590;BME280;1809;48.470;9.226;2023-04-27T07:56:41;-16599.78;;;15.47;100.00
3590;BME280;1809;48.470;9.226;2023-04-27T07:59:07;-16598.66;;;15.43;100.00
3590;BME280;1809;48.470;9.226;2023-04-27T08:01:32;-16604.53;;;15.64;100.00
3590;BME280;1809;48.470;9.226;2023-04-27T08:03:58;-16618.00;;;16.12;100.00
3590;BME280;1809;48.470;9.226;2023-04-27T08:06:23;-16620.94;;;16.23;100.00
3590;BME280;1809;48.470;9.226;2023-04-27T08:08:48;-16626.81;;;16.44;100.00
3590;BME280;1809;48.470;9.226;2023-04-27T08:11:14;-16627.81;;;16.48;100.00
3590;BME280;1809;48.470;9.226;2023-04-27T08:13:39;-16617.72;;;16.11;100.00
3590;BME280;1809;48.470;9.226;2023-04-27T08:16:05;-16612.41;;;15.92;100.00
3590;BME280;1809;48.470;9.226;2023-04-27T08:18:30;-16603.00;;;15.58;100.00
3590;BME280;1809;48.470;9.226;2023-04-27T08:20:56;-16603.84;;;15.62;100.00
3590;BME280;1809;48.470;9.226;2023-04-27T08:23:21;-16602.03;;;15.55;100.00
3590;BME280;1809;48.470;9.226;2023-04-27T08:25:46;-16602.03;;;15.55;100.00
3590;BME280;1809;48.470;9.226;2023-04-27T08:28:13;-16595.44;;;15.31;100.00
3590;BME280;1809;48.470;9.226;2023-04-27T08:30:41;-16580.72;;;14.78;100.00
3590;BME280;1809;48.470;9.226;2023-04-27T08:33:06;-16576.22;;;14.62;100.00
3590;BME280;1809;48.470;9.226;2023-04-27T08:35:32;-16571.75;;;14.46;100.00
3590;BME280;1809;48.470;9.226;2023-04-27T08:37:58;-16586.75;;;15.00;100.00
3590;BME280;1809;48.470;9.226;2023-04-27T08:40:23;-16590.25;;;15.13;100.00
3590;BME280;1809;48.470;9.226;2023-04-27T08:42:56;-16590.25;;;15.13;100.00
3590;BME280;1809;48.470;9.226;2023-04-27T08:45:23;-16596.84;;;15.36;100.00
3590;BME280;1809;48.470;9.226;2023-04-27T08:47:49;-16607.91;;;15.76;100.00
3590;BME280;1809;48.470;9.226;2023-04-27T08:50:15;-16615.34;;;16.03;100.00
3590;BME280;1809;48.470;9.226;2023-04-27T08:52:48;-16616.03;;;16.05;100.00
3590;BME280;1809;48.470;9.226;2023-04-27T08:55:13;-16619.53;;;16.18;100.00
3590;BME280;1809;48.470;9.226;2023-04-27T08:57:39;-16631.31;;;16.60;100.00
3590;BME280;1809;48.470;9.226;2023-04-27T09:00:05;-16638.72;;;16.87;100.00
3590;BME280;1809;48.470;9.226;2023-04-27T09:02:44;-16650.91;;;17.31;98.46
3590;BME280;1809;48.470;9.226;2023-04-27T09:05:25;-16663.94;;;17.78;91.32
3590;BME280;1809;48.470;9.226;2023-04-27T09:08:04;-16673.44;;;18.12;88.56
3590;BME280;1809;48.470;9.226;2023-04-27T09:10:49;-16658.91;;;17.60;83.22
3590;BME280;1809;48.470;9.226;2023-04-27T09:13:15;-16660.56;;;17.66;89.50
3590;BME280;1809;48.470;9.226;2023-04-27T09:15:48;-16661.41;;;17.69;87.22
3590;BME280;1809;48.470;9.226;2023-04-27T09:18:19;-16670.22;;;18.01;88.53
3590;BME280;1809;48.470;9.226;2023-04-27T09:20:45;-16668.97;;;17.96;91.11
3590;BME280;1809;48.470;9.226;2023-04-27T09:23:24;-16661.13;;;17.68;92.05
3590;BME280;1809;48.470;9.226;2023-04-27T09:25:50;-16658.91;;;17.60;95.19
3590;BME280;1809;48.470;9.226;2023-04-27T09:28:15;-16653.84;;;17.42;93.83
3590;BME280;1809;48.470;9.226;2023-04-27T09:30:53;-16667.56;;;17.91;97.90
3590;BME280;1809;48.470;9.226;2023-04-27T09:33:27;-16671.78;;;18.06;96.53
3590;BME280;1809;48.470;9.226;2023-04-27T09:35:55;-16674.84;;;18.17;93.99
3590;BME280;1809;48.470;9.226;2023-04-27T09:38:21;-16676.81;;;18.24;92.78
3590;BME280;1809;48.470;9.226;2023-04-27T09:40:51;-16669.81;;;17.99;96.75
3590;BME280;1809;48.470;9.226;2023-04-27T09:43:17;-16640.69;;;16.94;100.00
3590;BME280;1809;48.470;9.226;2023-04-27T09:45:42;-16650.91;;;17.31;100.00
3590;BME280;1809;48.470;9.226;2023-04-27T09:48:10;-16628.63;;;16.51;100.00
3590;BME280;1809;48.470;9.226;2023-04-27T09:50:38;-16630.19;;;16.56;100.00
3590;BME280;1809;48.470;9.226;2023-04-27T09:53:05;-16644.47;;;17.08;100.00
3590;BME280;1809;48.470;9.226;2023-04-27T09:55:38;-16642.94;;;17.02;100.00
3590;BME280;1809;48.470;9.226;2023-04-27T09:58:24;-16652.16;;;17.36;100.00
3590;BME280;1809;48.470;9.226;2023-04-27T10:01:12;-16651.63;;;17.34;100.00
3590;BME280;1809;48.470;9.226;2023-04-27T10:07:09;-16646.84;;;17.16;100.00
3590;BME280;1809;48.470;9.226;2023-04-27T10:09:44;-16642.78;;;17.02;100.00
3590;BME280;1809;48.470;9.226;2023-04-27T10:12:17;-16635.94;;;16.77;100.00
3590;BME280;1809;48.470;9.226;2023-04-27T10:14:56;-16640.41;;;16.93;100.00
3590;BME280;1809;48.470;9.226;2023-04-27T10:17:33;-16646.00;;;17.13;100.00
3590;BME280;1809;48.470;9.226;2023-04-27T10:20:03;-16641.53;;;16.97;100.00
3590;BME280;1809;48.470;9.226;2023-04-27T10:22:44;-16650.78;;;17.31;99.65
3590;BME280;1809;48.470;9.226;2023-04-27T10:25:25;-16642.78;;;17.02;100.00
3590;BME280;1809;48.470;9.226;2023-04-27T10:30:23;-16635.66;;;16.76;100.00
3590;BME280;1809;48.470;9.226;2023-04-27T10:32:57;-16643.91;;;17.06;100.00
3590;BME280;1809;48.470;9.226;2023-04-27T10:35:35;-16655.81;;;17.49;98.04
3590;BME280;1809;48.470;9.226;2023-04-27T10:38:21;-16661.69;;;17.70;95.59
3590;BME280;1809;48.470;9.226;2023-04-27T10:40:55;-16667.00;;;17.89;89.81
3590;BME280;1809;48.470;9.226;2023-04-27T10:43:25;-16685.50;;;18.56;90.54
3590;BME280;1809;48.470;9.226;2023-04-27T10:45:52;-16690.38;;;18.73;77.01
3590;BME280;1809;48.470;9.226;2023-04-27T10:48:17;-16696.81;;;18.97;78.86
3590;BME280;1809;48.470;9.226;2023-04-27T10:50:43;-16702.28;;;19.16;71.66
3590;BME280;1809;48.470;9.226;2023-04-27T10:53:12;-16697.50;;;18.99;69.47
3590;BME280;1809;48.470;9.226;2023-04-27T10:55:38;-16676.66;;;18.24;78.44
3590;BME280;1809;48.470;9.226;2023-04-27T10:58:04;-16655.81;;;17.49;81.28
3590;BME280;1809;48.470;9.226;2023-04-27T11:00:31;-16651.34;;;17.33;85.83
3590;BME280;1809;48.470;9.226;2023-04-27T11:05:36;-16658.63;;;17.59;87.44
3590;BME280;1809;48.470;9.226;2023-04-27T11:08:04;-16669.66;;;17.99;87.26
3590;BME280;1809;48.470;9.226;2023-04-27T11:10:29;-16668.41;;;17.94;81.48
3590;BME280;1809;48.470;9.226;2023-04-27T11:12:55;-16667.00;;;17.89;86.04
3590;BME280;1809;48.470;9.226;2023-04-27T11:15:21;-16669.38;;;17.98;84.03
3590;BME280;1809;48.470;9.226;2023-04-27T11:17:46;-16674.56;;;18.16;82.05
3590;BME280;1809;48.470;9.226;2023-04-27T11:20:11;-16674.28;;;18.15;85.43
3590;BME280;1809;48.470;9.226;2023-04-27T11:22:44;-16678.75;;;18.32;85.77
3590;BME280;1809;48.470;9.226;2023-04-27T11:25:10;-16691.63;;;18.78;81.99
3590;BME280;1809;48.470;9.226;2023-04-27T11:27:37;-16689.25;;;18.69;80.24
3590;BME280;1809;48.470;9.226;2023-04-27T11:30:03;-16682.97;;;18.47;81.42
3590;BME280;1809;48.470;9.226;2023-04-27T11:32:29;-16690.09;;;18.72;75.89
3590;BME280;1809;48.470;9.226;2023-04-27T11:34:55;-16695.13;;;18.91;73.18
3590;BME280;1809;48.470;9.226;2023-04-27T11:37:24;-16696.13;;;18.94;78.07
3590;BME280;1809;48.470;9.226;2023-04-27T11:39:51;-16699.75;;;19.07;80.66
3590;BME280;1809;48.470;9.226;2023-04-27T11:42:19;-16702.56;;;19.17;77.62
3590;BME280;1809;48.470;9.226;2023-04-27T11:44:57;-16682.97;;;18.47;82.53
3590;BME280;1809;48.470;9.226;2023-04-27T11:47:24;-16684.38;;;18.52;86.81
3590;BME280;1809;48.470;9.226;2023-04-27T11:50:00;-16707.88;;;19.37;82.14
3590;BME280;1809;48.470;9.226;2023-04-27T11:52:36;-16713.19;;;19.56;75.47
3590;BME280;1809;48.470;9.226;2023-04-27T11:55:03;-16690.53;;;18.74;80.03
3590;BME280;1809;48.470;9.226;2023-04-27T11:57:31;-16684.66;;;18.53;85.98
3590;BME280;1809;48.470;9.226;2023-04-27T12:00:01;-16681.28;;;18.41;87.36
3590;BME280;1809;48.470;9.226;2023-04-27T12:02:30;-16692.06;;;18.79;88.72
3590;BME280;1809;48.470;9.226;2023-04-27T12:04:57;-16697.78;;;19.00;88.75
3590;BME280;1809;48.470;9.226;2023-04-27T12:07:23;-16701.16;;;19.12;79.24
3590;BME280;1809;48.470;9.226;2023-04-27T12:09:48;-16698.06;;;19.01;80.26
3590;BME280;1809;48.470;9.226;2023-04-27T12:12:14;-16706.19;;;19.30;77.15
3590;BME280;1809;48.470;9.226;2023-04-27T12:14:43;-16702.00;;;19.15;79.55
3590;BME280;1809;48.470;9.226;2023-04-27T12:17:08;-16684.09;;;18.51;87.54
3590;BME280;1809;48.470;9.226;2023-04-27T12:19:34;-16686.19;;;18.58;81.74
3590;BME280;1809;48.470;9.226;2023-04-27T12:22:01;-16690.38;;;18.73;77.37
3590;BME280;1809;48.470;9.226;2023-04-27T12:24:27;-16686.06;;;18.58;70.17
3590;BME280;1809;48.470;9.226;2023-04-27T12:26:52;-16693.75;;;18.86;69.12
3590;BME280;1809;48.470;9.226;2023-04-27T12:29:17;-16703.94;;;19.22;72.79
3590;BME280;1809;48.470;9.226;2023-04-27T12:31:43;-16707.88;;;19.37;66.36
3590;BME280;1809;48.470;9.226;2023-04-27T12:34:08;-16723.53;;;19.93;67.65
3590;BME280;1809;48.470;9.226;2023-04-27T12:36:34;-16737.78;;;20.45;63.01
3590;BME280;1809;48.470;9.226;2023-04-27T12:39:20;-16737.50;;;20.44;62.57
3590;BME280;1809;48.470;9.226;2023-04-27T12:41:47;-16732.19;;;20.24;59.66
3590;BME280;1809;48.470;9.226;2023-04-27T12:44:14;-16733.31;;;20.28;63.83
3590;BME280;1809;48.470;9.226;2023-04-27T12:46:40;-16727.03;;;20.06;62.92
3590;BME280;1809;48.470;9.226;2023-04-27T12:49:06;-16731.91;;;20.23;62.85
3590;BME280;1809;48.470;9.226;2023-04-27T12:51:32;-16736.41;;;20.39;67.83
3590;BME280;1809;48.470;9.226;2023-04-27T12:54:04;-16749.13;;;20.85;65.43
3590;BME280;1809;48.470;9.226;2023-04-27T12:56:30;-16741.72;;;20.59;62.22
3590;BME280;1809;48.470;9.226;2023-04-27T12:58:56;-16730.25;;;20.17;64.16
3590;BME280;1809;48.470;9.226;2023-04-27T13:01:22;-16729.13;;;20.13;66.31
3590;BME280;1809;48.470;9.226;2023-04-27T13:03:52;-16730.81;;;20.19;67.14
3590;BME280;1809;48.470;9.226;2023-04-27T13:06:19;-16729.41;;;20.14;65.73
3590;BME280;1809;48.470;9.226;2023-04-27T13:08:47;-16742.53;;;20.62;63.98
3590;BME280;1809;48.470;9.226;2023-04-27T13:11:12;-16737.50;;;20.44;68.82
3590;BME280;1809;48.470;9.226;2023-04-27T13:13:37;-16740.59;;;20.55;67.12